Glenville, New York
Current Conditions -  °F | °C
As of 10:55 PM on Friday 24 Oct 2014 (Local Time) from KNY0 Reporting Station
Clear Clear  
Wind Chill:   Ceiling: Unl
Heat Index:   Visibility: 10mi
Dew Point:   Wind: 7mph
Humidity: 88%   Direction: 250°WSW
Pressure: 29.88"   Gusts: NA
Location:  42.9294°N, 74.0527°W
Report Text: KNY0 250255Z AUTO 25006KT 10SM CLR 06/04 A2988 RMK AO2 T00600041
Loading
Personal Weather Stations






























Interactive Weather Map
Tropical Storm Tracking
New forecast layout! Learn more

10-Day Weather Forecast

Advertisements
Track Severe Weather on mobile